Lincoln Airport
KLNK : rendu visible

Aérodrome :











RETROUVEZ-NOUS SUR...

 
LOGIN :

S'inscrire | Disclaimer

   EN    FR    IT 

 









Légende :    VFR   VFR Marginal   IFR   IFR Intensif   IFR Très Intensif
Visi : 
Plafond : 
>= 8 km
>= 3000ft
5 à 8 km
1000 à 3000 ft
1500m à 5 km
500 à 1000 ft
800 à 1500m
200 à 500 ft
< 800m
< 200 ft
Symboles :   Orages  Brouillard  Fortes neiges  Fortes précipitations  Vent > 20 kt






- Altitude de l'aérodrome : 1219 ft
- Code IATA : LNK


KLNK - Lincoln

DERNIER METAR :
  • 192154Z 03013KT 1 1/2SM R36/5500VP6000FT -SN OVC012 M06/M09 A3060 RMK AO2 SNB41 SLP381 P0000 T10561089

METARs EXPIRÉS :
  • 192054Z AUTO 03013KT 10SM OVC010 M06/M09 A3059 RMK AO2 SLP378 T10561089 57009
  • 191954Z 02014KT 10SM OVC010 M05/M09 A3060 RMK AO2 SLP379 T10501089
  • 191945Z 04014KT 10SM OVC010 M05/M09 A3060 RMK AO2 T10501089
  • 191913Z 04014KT 10SM OVC009 M05/M08 A3059 RMK AO2 T10501083
  • 191854Z 05014KT 9SM OVC010 M05/M08 A3061 RMK AO2 SLP384 T10501083

TAF KLNK
Valide du 19 à 18h jusqu'au 20 à 18h UTC


191735Z 1918/2018 04010KT P6SM OVC012
FM192000 04011KT P6SM OVC015
TEMPO 1921/2001 3SM -SN OVC020
FM200100 03005KT P6SM OVC035
FM200800 03004KT P6SM SCT100



MET'MAP, la Météo Aéronautique d'un coup d'oeil ! - Copyright ORBIFLY Décembre 2007 - Disclaimer

ORBIFLY MET'MAP TEAM :

Programmation & Développement : Alexandra Zaïnal
Sur une idée originale de : Baudouin d'Aumeries
Assistance à la programmation : Marc-Olivier Méhu
Soutien technique & logistique : Manuel Goepfert

Contact : metmap@orbifly.com




SOURCES & CREDITS :

   NOAA       Earth
Advisory